Time;durP1;ratioP1;P1;durP2;ratioP2;P2;SDS_P1;SDS_P2;PMS_P1;PMS_P2;Temp;Humidity;BMP_temperature;BMP_pressure;BME280_temperature;BME280_humidity;BME280_pressure;Samples;Min_cycle;Max_cycle;Signal;HPM_P1;HPM_P2
2022/08/04 00:00:12;;;;;;;12.07;8.65;;;24.00;63.10;;;;;;4964749;28;20046;-89
2022/08/04 00:03:05;;;;;;;11.77;8.40;;;23.90;63.60;;;;;;4970886;28;20026;-85
2022/08/04 00:05:59;;;;;;;15.15;8.38;;;23.90;64.20;;;;;;4950720;28;20570;-87
2022/08/04 00:08:38;;;;;;;12.70;7.85;;;23.90;63.10;;;;;;4968861;28;20051;-83
2022/08/04 00:11:07;;;;;;;11.38;8.50;;;23.80;62.90;;;;;;4969955;28;20034;-86
2022/08/04 00:13:38;;;;;;;11.82;8.20;;;23.70;62.90;;;;;;4972419;28;20026;-86
2022/08/04 00:16:09;;;;;;;13.38;8.15;;;23.70;62.70;;;;;;4988297;28;20080;-85
2022/08/04 00:18:44;;;;;;;14.43;8.30;;;23.70;63.50;;;;;;4984329;28;20121;-84
2022/08/04 00:21:11;;;;;;;;;;;23.60;63.80;;;;;;4989223;28;20038;-86
2022/08/04 00:23:38;;;;;;;12.60;7.00;;;23.60;63.00;;;;;;5003693;28;19913;-85
2022/08/04 00:26:04;;;;;;;11.45;7.68;;;23.70;62.70;;;;;;4986700;28;20034;-83
2022/08/04 00:28:31;;;;;;;10.05;7.78;;;23.70;62.40;;;;;;4971638;28;20049;-83
2022/08/04 00:30:57;;;;;;;14.20;7.82;;;23.60;64.30;;;;;;4969289;28;20038;-83
2022/08/04 00:33:23;;;;;;;11.73;8.20;;;23.60;64.60;;;;;;4951361;28;20639;-85
2022/08/04 00:35:49;;;;;;;14.30;8.73;;;23.50;64.60;;;;;;4955773;28;20408;-83
2022/08/04 00:38:17;;;;;;;12.93;7.57;;;23.50;64.80;;;;;;4954576;28;20545;-82
2022/08/04 00:41:04;;;;;;;13.40;8.25;;;23.50;64.60;;;;;;4970919;28;20440;-82
2022/08/04 00:43:55;;;;;;;13.02;8.98;;;23.50;64.60;;;;;;4969871;28;20125;-84
2022/08/04 00:46:54;;;;;;;16.92;8.98;;;23.30;66.20;;;;;;4986799;28;20125;-82
2022/08/04 00:49:41;;;;;;;17.98;9.40;;;23.30;65.80;;;;;;4972788;28;20050;-83
2022/08/04 00:52:30;;;;;;;12.15;9.60;;;23.30;65.30;;;;;;4989161;28;20095;-84
2022/08/04 00:55:05;;;;;;;20.52;11.05;;;23.40;64.70;;;;;;4975308;28;20045;-84
2022/08/04 00:57:37;;;;;;;17.77;10.90;;;23.40;64.70;;;;;;5006800;28;20048;-83
2022/08/04 01:00:09;;;;;;;18.50;11.60;;;23.40;64.30;;;;;;4986871;28;20841;-84
2022/08/04 01:02:38;;;;;;;18.63;10.82;;;23.50;64.30;;;;;;4987469;28;20042;-83
2022/08/04 01:05:38;;;;;;;15.65;9.68;;;23.30;65.30;;;;;;5002842;28;20040;-83
2022/08/04 01:08:09;;;;;;;20.30;11.88;;;23.20;67.90;;;;;;4985759;28;20073;-83
2022/08/04 01:10:50;;;;;;;16.15;11.20;;;23.10;66.80;;;;;;4963617;28;20057;-83
2022/08/04 01:13:22;;;;;;;19.80;11.93;;;23.10;67.90;;;;;;4969612;28;20034;-84
2022/08/04 01:15:56;;;;;;;28.00;15.90;;;23.00;68.00;;;;;;4969488;28;20120;-84
2022/08/04 01:18:53;;;;;;;29.90;18.73;;;23.10;66.70;;;;;;4985711;28;20222;-85
2022/08/04 01:21:28;;;;;;;37.47;21.33;;;23.10;66.10;;;;;;4968605;28;20053;-85
2022/08/04 01:24:21;;;;;;;45.78;25.60;;;23.00;65.60;;;;;;4950014;28;20061;-86
2022/08/04 01:27:05;;;;;;;53.45;26.45;;;23.10;65.40;;;;;;4969841;28;20065;-86
2022/08/04 01:29:44;;;;;;;50.33;25.30;;;23.10;65.30;;;;;;4986524;28;20050;-85
2022/08/04 01:32:23;;;;;;;46.85;25.35;;;23.10;65.00;;;;;;4986693;28;20096;-86
2022/08/04 01:34:59;;;;;;;48.92;23.98;;;23.10;64.50;;;;;;4985498;28;20054;-87
2022/08/04 01:37:53;;;;;;;53.40;27.60;;;23.10;64.70;;;;;;4966431;28;20041;-84
2022/08/04 01:40:20;;;;;;;51.00;25.83;;;23.10;64.90;;;;;;4986016;28;20042;-84
2022/08/04 01:42:51;;;;;;;56.65;27.80;;;23.10;65.30;;;;;;4970189;28;20042;-84
2022/08/04 01:45:17;;;;;;;64.53;28.90;;;23.00;65.20;;;;;;4969673;28;20049;-83
2022/08/04 01:47:49;;;;;;;60.17;28.00;;;22.90;65.50;;;;;;4963448;28;20027;-82
2022/08/04 01:50:16;;;;;;;61.25;28.40;;;23.00;65.50;;;;;;4982352;28;20081;-83
2022/08/04 01:52:44;;;;;;;52.25;28.13;;;23.00;65.20;;;;;;4969891;28;20058;-83
2022/08/04 01:55:13;;;;;;;58.83;28.10;;;23.00;65.30;;;;;;4969116;28;20062;-83
2022/08/04 01:57:45;;;;;;;60.00;28.92;;;22.90;65.70;;;;;;4970885;28;20073;-82
2022/08/04 02:00:15;;;;;;;55.88;28.60;;;22.90;65.70;;;;;;4958250;28;20085;-83
2022/08/04 02:02:43;;;;;;;55.47;27.40;;;22.90;65.60;;;;;;4993512;28;20034;-83
2022/08/04 02:05:10;;;;;;;54.85;28.00;;;22.90;65.80;;;;;;4991167;28;20061;-83
2022/08/04 02:08:02;;;;;;;50.47;27.60;;;23.00;65.90;;;;;;4971582;28;20558;-82
2022/08/04 02:10:51;;;;;;;51.83;27.05;;;22.90;65.50;;;;;;4965271;28;20038;-84
2022/08/04 02:13:27;;;;;;;48.95;25.98;;;22.90;65.70;;;;;;4986316;28;20027;-84
2022/08/04 02:16:21;;;;;;;45.22;24.85;;;23.00;65.60;;;;;;4970403;28;20810;-84
2022/08/04 02:19:24;;;;;;;45.55;24.25;;;22.90;65.60;;;;;;4974631;28;20038;-85
2022/08/04 02:21:56;;;;;;;38.90;21.95;;;22.90;65.70;;;;;;4990245;28;20038;-84
2022/08/04 02:24:28;;;;;;;37.13;21.25;;;23.00;65.60;;;;;;4958801;28;20043;-85
2022/08/04 02:26:55;;;;;;;35.90;20.50;;;23.00;65.70;;;;;;4987961;28;20121;-86
2022/08/04 02:29:53;;;;;;;33.88;19.63;;;23.00;66.10;;;;;;4955852;28;20034;-84
2022/08/04 02:32:27;;;;;;;25.33;17.60;;;23.00;66.30;;;;;;4967934;28;20038;-84
2022/08/04 02:34:59;;;;;;;25.45;16.88;;;23.00;66.40;;;;;;4968495;28;20082;-84
2022/08/04 02:37:25;;;;;;;22.92;14.98;;;23.10;66.40;;;;;;4952504;28;20077;-85
2022/08/04 02:39:52;;;;;;;22.17;14.77;;;23.00;66.40;;;;;;4985583;28;20038;-85
2022/08/04 02:42:19;;;;;;;24.02;13.88;;;23.00;66.50;;;;;;4967681;28;20548;-84
2022/08/04 02:44:50;;;;;;;19.60;14.38;;;23.10;66.70;;;;;;4969447;28;20026;-85
2022/08/04 02:47:27;;;;;;;23.38;14.65;;;23.20;66.80;;;;;;5001685;28;20862;-84
2022/08/04 02:49:56;;;;;;;20.15;13.40;;;23.30;66.70;;;;;;5001446;28;20026;-84
2022/08/04 02:52:25;;;;;;;23.02;14.07;;;23.40;66.60;;;;;;4985497;28;20073;-83
2022/08/04 02:54:55;;;;;;;22.50;13.77;;;23.40;66.30;;;;;;4966781;28;20054;-84
2022/08/04 02:57:25;;;;;;;19.70;12.57;;;23.40;65.90;;;;;;4984436;28;20371;-84
2022/08/04 03:00:13;;;;;;;20.27;11.90;;;23.30;66.00;;;;;;4983655;28;20030;-83
2022/08/04 03:03:03;;;;;;;16.52;12.23;;;23.30;65.80;;;;;;5000889;28;20053;-83
2022/08/04 03:05:39;;;;;;;15.18;12.07;;;23.40;66.00;;;;;;4988087;28;20065;-83
2022/08/04 03:08:18;;;;;;;15.85;11.57;;;23.40;66.30;;;;;;5027353;28;20318;-85
2022/08/04 03:10:59;;;;;;;16.02;11.27;;;23.30;66.50;;;;;;4978689;28;20041;-85
2022/08/04 03:13:47;;;;;;;15.65;11.43;;;23.30;66.50;;;;;;4975738;28;20058;-85
2022/08/04 03:16:35;;;;;;;21.58;11.25;;;23.30;66.60;;;;;;4986050;28;20038;-82
2022/08/04 03:19:14;;;;;;;17.15;10.77;;;23.30;66.60;;;;;;4967821;28;20085;-83
2022/08/04 03:22:01;;;;;;;15.15;10.10;;;23.30;66.60;;;;;;4949770;28;20436;-84
2022/08/04 03:24:36;;;;;;;16.35;11.27;;;23.30;67.00;;;;;;4973811;28;20041;-84
2022/08/04 03:27:17;;;;;;;11.05;9.70;;;23.40;66.40;;;;;;4984711;28;20026;-84
2022/08/04 03:29:46;;;;;;;13.77;9.70;;;23.40;66.40;;;;;;4980935;28;20071;-84
2022/08/04 03:32:25;;;;;;;13.70;9.30;;;23.30;65.80;;;;;;4987579;28;20133;-83
2022/08/04 03:35:12;;;;;;;14.18;9.60;;;23.30;66.10;;;;;;4988380;28;20027;-83
2022/08/04 03:37:38;;;;;;;14.05;10.85;;;23.20;67.00;;;;;;4971882;28;20030;-83
2022/08/04 03:40:13;;;;;;;11.18;9.10;;;23.20;67.10;;;;;;4989829;28;20030;-82
2022/08/04 03:43:14;;;;;;;9.93;7.85;;;23.20;66.50;;;;;;4956332;28;20474;-83
2022/08/04 03:46:24;;;;;;;11.02;7.28;;;23.30;65.70;;;;;;4987399;28;20038;-80
2022/08/04 03:49:07;;;;;;;9.93;7.65;;;23.30;65.80;;;;;;4984886;28;20046;-81
2022/08/04 03:54:38;;;;;;;7.50;6.68;;;23.30;65.70;;;;;;4983711;28;20038;-81
2022/08/04 03:57:26;;;;;;;10.93;7.78;;;23.30;65.60;;;;;;4987632;28;20042;-81
2022/08/04 04:00:05;;;;;;;11.73;7.60;;;23.40;65.50;;;;;;4987654;28;20034;-79
2022/08/04 04:02:56;;;;;;;12.48;7.47;;;23.40;65.60;;;;;;4972515;28;20521;-79
2022/08/04 04:06:03;;;;;;;10.18;7.55;;;23.50;65.80;;;;;;4988001;28;20153;-80
2022/08/04 04:09:06;;;;;;;9.98;7.20;;;23.80;64.90;;;;;;4912731;29;20486;-80
2022/08/04 04:12:10;;;;;;;8.52;6.88;;;24.20;64.60;;;;;;4915301;29;20051;-80
2022/08/04 04:14:59;;;;;;;7.47;6.78;;;24.60;63.90;;;;;;4825272;29;20102;-79
2022/08/04 04:17:42;;;;;;;11.57;7.50;;;24.90;63.20;;;;;;4840457;29;20050;-78
2022/08/04 04:20:16;;;;;;;9.75;6.57;;;25.10;62.30;;;;;;4857036;29;21230;-79
2022/08/04 04:23:00;;;;;;;10.30;7.35;;;25.40;62.20;;;;;;4826754;29;20460;-80
2022/08/04 04:25:26;;;;;;;13.45;7.40;;;25.60;61.00;;;;;;4848657;29;20084;-79
2022/08/04 04:28:10;;;;;;;12.18;6.93;;;25.80;60.40;;;;;;4833820;29;20061;-82
2022/08/04 04:30:36;;;;;;;12.20;6.45;;;26.00;60.10;;;;;;4827203;29;21632;-83
2022/08/04 04:33:29;;;;;;;9.10;6.63;;;26.20;60.10;;;;;;4856755;29;20037;-81
2022/08/04 04:36:10;;;;;;;9.70;6.15;;;26.40;60.00;;;;;;4826538;29;20458;-82
2022/08/04 04:38:51;;;;;;;9.18;5.57;;;26.60;59.60;;;;;;4842977;29;20053;-83
2022/08/04 04:41:22;;;;;;;7.00;5.45;;;26.70;59.00;;;;;;4842448;29;20053;-82
2022/08/04 04:44:03;;;;;;;7.57;5.18;;;26.90;58.30;;;;;;4841661;29;20053;-89
2022/08/04 04:46:36;;;;;;;7.38;5.20;;;27.10;57.80;;;;;;4892176;29;20515;-91
2022/08/04 04:49:34;;;;;;;8.65;5.22;;;27.30;57.30;;;;;;4903645;29;20586;-86
2022/08/04 04:52:26;;;;;;;6.18;4.82;;;27.30;56.20;;;;;;4939191;28;20049;-85
2022/08/04 04:55:20;;;;;;;5.18;4.32;;;27.70;56.60;;;;;;4920150;29;20035;-85
2022/08/04 04:57:50;;;;;;;9.60;4.60;;;28.00;55.00;;;;;;4907291;29;20066;-85
2022/08/04 05:00:17;;;;;;;8.35;4.68;;;28.30;55.20;;;;;;4905311;29;20058;-83
2022/08/04 05:03:10;;;;;;;7.40;4.72;;;28.60;55.40;;;;;;4913055;28;20028;-83
2022/08/04 05:05:37;;;;;;;4.55;3.90;;;28.80;53.80;;;;;;4913298;29;20231;-84
2022/08/04 05:08:14;;;;;;;5.88;4.15;;;29.00;52.90;;;;;;4920577;29;20150;-83
2022/08/04 05:11:20;;;;;;;7.63;4.85;;;29.30;52.20;;;;;;4912952;29;20560;-82
2022/08/04 05:13:53;;;;;;;6.88;4.70;;;29.40;51.60;;;;;;4913830;29;20542;-86
2022/08/04 05:16:43;;;;;;;6.75;4.20;;;29.40;51.90;;;;;;4922241;29;20039;-84
2022/08/04 05:19:23;;;;;;;6.20;3.95;;;29.50;51.70;;;;;;4904596;29;20040;-86
2022/08/04 05:22:02;;;;;;;6.60;4.00;;;29.70;52.10;;;;;;4907319;29;20031;-85
2022/08/04 05:24:33;;;;;;;5.88;3.70;;;29.80;52.40;;;;;;4923819;29;20043;-85
2022/08/04 05:27:04;;;;;;;4.00;3.40;;;29.80;50.50;;;;;;4927910;28;20121;-84
2022/08/04 05:29:40;;;;;;;5.10;3.70;;;29.90;50.30;;;;;;4926051;29;20039;-80
2022/08/04 05:32:11;;;;;;;5.63;3.60;;;30.00;49.90;;;;;;4960393;28;20038;-83
2022/08/04 05:34:43;;;;;;;10.43;3.85;;;30.00;50.10;;;;;;4986537;28;20042;-81
2022/08/04 05:37:16;;;;;;;5.28;3.78;;;30.10;50.40;;;;;;4980447;28;20544;-82
2022/08/04 05:40:04;;;;;;;8.18;4.30;;;30.30;50.00;;;;;;4970239;28;20410;-82
2022/08/04 05:42:38;;;;;;;6.43;4.03;;;30.30;49.70;;;;;;4969694;28;20030;-83
2022/08/04 05:45:06;;;;;;;5.45;3.83;;;30.20;49.80;;;;;;4986366;28;20121;-83
2022/08/04 05:47:35;;;;;;;7.78;4.32;;;30.00;50.20;;;;;;4970143;28;20061;-83
2022/08/04 05:50:03;;;;;;;7.20;3.90;;;30.00;50.20;;;;;;4983553;28;20548;-83
2022/08/04 05:52:31;;;;;;;6.68;3.50;;;30.00;49.70;;;;;;4981244;28;20038;-83
2022/08/04 05:54:59;;;;;;;9.45;3.90;;;30.20;50.30;;;;;;4986229;28;20081;-82
2022/08/04 05:57:25;;;;;;;5.70;3.47;;;30.30;49.90;;;;;;4952956;28;20165;-82
2022/08/04 05:59:56;;;;;;;6.97;3.63;;;30.50;48.90;;;;;;4980650;28;20307;-83
2022/08/04 06:02:23;;;;;;;5.25;3.30;;;30.80;48.30;;;;;;4954244;28;20030;-83
2022/08/04 06:04:51;;;;;;;5.47;3.08;;;30.90;49.00;;;;;;4968888;28;20744;-84
2022/08/04 06:07:17;;;;;;;6.43;3.08;;;30.70;49.10;;;;;;4985648;28;20128;-82
2022/08/04 06:09:44;;;;;;;4.65;3.20;;;30.70;49.30;;;;;;4968851;28;20043;-83
2022/08/04 06:12:33;;;;;;;6.40;3.10;;;30.60;47.40;;;;;;4986670;28;20065;-79
2022/08/04 06:15:00;;;;;;;5.60;2.90;;;30.60;47.80;;;;;;4985343;28;20030;-81
2022/08/04 06:17:37;;;;;;;3.50;2.60;;;30.70;48.10;;;;;;4952813;28;20060;-81
2022/08/04 06:20:06;;;;;;;6.05;3.40;;;30.70;47.70;;;;;;4984517;28;20069;-80
2022/08/04 06:22:33;;;;;;;4.75;3.70;;;30.70;47.70;;;;;;4968581;28;20472;-84
2022/08/04 06:25:01;;;;;;;8.50;3.10;;;30.70;47.40;;;;;;4954233;28;20094;-88
2022/08/04 06:27:29;;;;;;;9.05;3.45;;;30.60;48.70;;;;;;4952436;28;20042;-85
2022/08/04 06:29:57;;;;;;;5.55;3.22;;;30.40;49.60;;;;;;4987960;28;20536;-89
2022/08/04 06:32:35;;;;;;;7.85;3.45;;;30.30;49.30;;;;;;4975702;28;20541;-86
2022/08/04 06:35:05;;;;;;;5.53;2.95;;;30.30;50.20;;;;;;5012552;28;20065;-82
2022/08/04 06:37:35;;;;;;;6.45;3.22;;;30.20;50.20;;;;;;4986989;28;20541;-83
2022/08/04 06:40:02;;;;;;;7.80;3.55;;;30.00;50.60;;;;;;4981490;28;20060;-82
2022/08/04 06:42:30;;;;;;;8.02;3.40;;;29.90;51.20;;;;;;4966945;28;20413;-80
2022/08/04 06:44:57;;;;;;;6.00;3.20;;;29.90;50.60;;;;;;4956903;28;20026;-81
2022/08/04 06:47:24;;;;;;;6.32;3.10;;;30.10;48.70;;;;;;4966611;28;20510;-81
2022/08/04 06:49:53;;;;;;;7.10;3.38;;;30.10;48.90;;;;;;4968984;28;20027;-82
2022/08/04 06:52:19;;;;;;;4.30;2.80;;;30.00;49.80;;;;;;4950901;28;20039;-81
2022/08/04 06:54:47;;;;;;;4.47;2.90;;;30.20;48.60;;;;;;4968195;28;20050;-80
2022/08/04 06:57:17;;;;;;;4.18;3.03;;;30.20;48.60;;;;;;4951487;28;20153;-83
2022/08/04 06:59:50;;;;;;;3.85;2.50;;;30.20;47.10;;;;;;4953117;28;20056;-83
2022/08/04 07:02:22;;;;;;;5.07;2.47;;;30.10;46.60;;;;;;5001407;28;20042;-81
2022/08/04 07:04:49;;;;;;;3.25;2.60;;;30.00;47.10;;;;;;4985086;28;20046;-82
2022/08/04 07:07:16;;;;;;;2.80;2.60;;;30.00;47.80;;;;;;4986542;28;20457;-82
2022/08/04 07:09:42;;;;;;;6.90;3.17;;;29.80;48.40;;;;;;4956860;28;20425;-87
2022/08/04 07:12:09;;;;;;;5.60;3.17;;;29.70;48.50;;;;;;4972904;28;20178;-84
2022/08/04 07:14:36;;;;;;;8.07;2.90;;;29.70;48.00;;;;;;4990591;28;20030;-85
2022/08/04 07:17:08;;;;;;;5.25;2.78;;;29.80;49.50;;;;;;4977199;28;20049;-85
2022/08/04 07:19:35;;;;;;;5.60;2.60;;;30.00;47.20;;;;;;4966949;28;20510;-81
2022/08/04 07:22:07;;;;;;;11.40;2.92;;;29.90;47.50;;;;;;4990258;28;20065;-81
2022/08/04 07:24:35;;;;;;;4.82;2.50;;;29.80;48.10;;;;;;4994024;28;20096;-81
2022/08/04 07:27:03;;;;;;;4.75;2.75;;;29.90;47.60;;;;;;4993057;28;20030;-80
2022/08/04 07:29:30;;;;;;;7.53;2.85;;;29.80;47.20;;;;;;4978010;28;20038;-81
2022/08/04 07:31:57;;;;;;;3.63;2.40;;;29.80;47.20;;;;;;4977334;28;20044;-83
2022/08/04 07:34:24;;;;;;;3.60;2.35;;;29.70;46.60;;;;;;4994010;28;20048;-85
2022/08/04 07:36:53;;;;;;;4.35;2.40;;;29.60;46.90;;;;;;4983781;28;20065;-80
2022/08/04 07:39:21;;;;;;;2.97;2.65;;;29.50;47.10;;;;;;5004730;28;20038;-80
2022/08/04 07:41:47;;;;;;;3.45;2.40;;;29.40;47.30;;;;;;4997406;28;20030;-81
2022/08/04 07:44:14;;;;;;;3.47;2.75;;;29.30;47.20;;;;;;4979484;28;20026;-84
2022/08/04 07:46:45;;;;;;;3.88;3.00;;;29.30;48.10;;;;;;4996667;28;20034;-86
2022/08/04 07:49:11;;;;;;;3.08;2.40;;;29.30;48.60;;;;;;4998437;28;20061;-85
2022/08/04 07:51:38;;;;;;;3.88;2.60;;;29.30;47.70;;;;;;4996389;28;20062;-86
2022/08/04 07:54:08;;;;;;;3.20;2.30;;;29.30;46.90;;;;;;4996905;28;20043;-84
2022/08/04 07:56:39;;;;;;;5.20;2.60;;;29.20;47.10;;;;;;4995962;28;20129;-83
2022/08/04 07:59:05;;;;;;;5.95;3.08;;;29.10;46.90;;;;;;4994028;28;20038;-86
2022/08/04 08:01:34;;;;;;;3.63;2.70;;;29.10;47.60;;;;;;4994365;28;20039;-83
2022/08/04 08:04:01;;;;;;;3.20;2.65;;;29.20;47.40;;;;;;4994152;28;20038;-84
2022/08/04 08:06:28;;;;;;;6.20;2.72;;;29.10;46.90;;;;;;4995471;28;20095;-87
2022/08/04 08:09:10;;;;;;;6.60;2.78;;;29.10;47.30;;;;;;4993377;28;20051;-85
2022/08/04 08:11:36;;;;;;;4.88;2.50;;;29.00;47.90;;;;;;4994666;28;20080;-84
2022/08/04 08:14:03;;;;;;;3.65;2.50;;;29.10;46.50;;;;;;4987603;28;20060;-83
2022/08/04 08:16:32;;;;;;;2.33;2.22;;;29.00;45.80;;;;;;4991341;28;20038;-83
2022/08/04 08:18:59;;;;;;;3.75;2.53;;;29.00;46.30;;;;;;4989776;28;20031;-83
2022/08/04 08:21:26;;;;;;;2.55;2.33;;;28.90;46.50;;;;;;4992617;28;20525;-84
2022/08/04 08:23:52;;;;;;;5.18;2.75;;;29.00;46.50;;;;;;4976233;28;20042;-86
2022/08/04 08:26:18;;;;;;;3.47;2.40;;;29.00;46.40;;;;;;4961189;28;20557;-88
2022/08/04 08:28:44;;;;;;;5.43;2.88;;;28.90;46.10;;;;;;4985677;28;20042;-93
2022/08/04 08:31:10;;;;;;;6.47;2.55;;;28.90;46.60;;;;;;4993492;28;20509;-85
2022/08/04 08:33:36;;;;;;;3.53;2.80;;;28.90;46.90;;;;;;4975343;28;20034;-84
2022/08/04 08:36:16;;;;;;;4.90;2.65;;;28.90;47.60;;;;;;4993025;28;20034;-87
2022/08/04 08:38:53;;;;;;;5.80;3.20;;;28.90;47.40;;;;;;4996294;28;20061;-88
2022/08/04 08:41:43;;;;;;;3.25;2.75;;;28.90;47.40;;;;;;4996049;28;20425;-87
2022/08/04 08:44:21;;;;;;;4.15;3.45;;;29.00;47.50;;;;;;4981300;28;20073;-82
2022/08/04 08:47:24;;;;;;;4.43;3.42;;;29.00;47.40;;;;;;5005682;28;20057;-82
2022/08/04 08:50:21;;;;;;;4.00;3.40;;;29.00;48.00;;;;;;5000848;28;20046;-82
2022/08/04 08:53:24;;;;;;;6.50;3.67;;;29.00;48.10;;;;;;4990425;28;20040;-81
2022/08/04 08:56:05;;;;;;;5.15;3.30;;;29.00;48.10;;;;;;4971298;28;20097;-83
2022/08/04 08:58:59;;;;;;;8.25;3.47;;;28.90;48.80;;;;;;4969772;28;20097;-80
2022/08/04 09:01:50;;;;;;;5.45;3.40;;;28.90;48.30;;;;;;4983413;28;20030;-83
2022/08/04 09:04:45;;;;;;;5.18;3.80;;;28.90;48.80;;;;;;4970492;28;20031;-84
2022/08/04 09:07:29;;;;;;;5.23;3.97;;;28.80;49.40;;;;;;4982085;28;20077;-92
2022/08/04 09:10:01;;;;;;;3.95;3.20;;;28.80;48.90;;;;;;4988552;28;20305;-94
2022/08/04 09:12:55;;;;;;;4.38;4.07;;;28.70;48.80;;;;;;4992760;28;20073;-89
2022/08/04 09:15:38;;;;;;;4.10;3.80;;;28.60;48.90;;;;;;4971622;28;20031;-89
2022/08/04 09:18:46;;;;;;;4.95;4.18;;;28.60;48.90;;;;;;4992975;28;20038;-96
2022/08/04 09:21:36;;;;;;;4.28;3.88;;;28.60;49.40;;;;;;4989899;28;20153;-88
2022/08/04 09:24:13;;;;;;;5.65;4.05;;;28.60;49.90;;;;;;4956639;28;20053;-90
2022/08/04 09:27:02;;;;;;;4.57;3.97;;;28.60;48.70;;;;;;4989030;28;20041;-91
2022/08/04 09:29:46;;;;;;;4.68;3.90;;;28.50;48.20;;;;;;4987255;28;20532;-93
2022/08/04 09:32:40;;;;;;;6.43;3.88;;;28.50;48.80;;;;;;4974600;28;20070;-95
2022/08/04 09:35:25;;;;;;;7.43;4.40;;;28.60;48.60;;;;;;4974014;28;20037;-91
2022/08/04 09:38:00;;;;;;;9.48;4.13;;;28.50;49.00;;;;;;4999059;28;20038;-89
2022/08/04 09:41:02;;;;;;;6.22;4.50;;;28.50;49.10;;;;;;4955309;28;20545;-87
2022/08/04 09:43:54;;;;;;;5.10;4.13;;;28.40;49.20;;;;;;4985276;28;20061;-85
2022/08/04 09:46:29;;;;;;;5.75;4.70;;;28.40;49.30;;;;;;4978411;28;20126;-84
2022/08/04 09:49:03;;;;;;;5.75;4.40;;;28.40;49.40;;;;;;4989884;28;20058;-84
2022/08/04 09:51:41;;;;;;;6.65;5.07;;;28.40;50.00;;;;;;4981589;28;20034;-84
2022/08/04 09:54:42;;;;;;;9.77;4.80;;;28.40;49.80;;;;;;5017635;28;20042;-81
2022/08/04 09:57:13;;;;;;;5.22;4.53;;;28.50;50.20;;;;;;4994177;28;20229;-80
2022/08/04 09:59:57;;;;;;;7.93;4.40;;;28.50;50.20;;;;;;4989391;28;20080;-79
2022/08/04 10:02:27;;;;;;;5.22;4.72;;;28.60;51.50;;;;;;4990639;28;20034;-87
2022/08/04 10:04:55;;;;;;;6.07;4.88;;;28.60;50.20;;;;;;4970096;28;20046;-81
2022/08/04 10:07:36;;;;;;;7.75;5.80;;;28.60;50.20;;;;;;4965104;28;20409;-85
2022/08/04 10:10:18;;;;;;;8.15;4.97;;;28.40;49.90;;;;;;4986344;28;20166;-84
2022/08/04 10:13:12;;;;;;;6.45;4.95;;;28.40;50.50;;;;;;4998616;28;20030;-88
2022/08/04 10:15:47;;;;;;;7.93;5.35;;;28.30;50.50;;;;;;4985865;28;20045;-85
2022/08/04 10:18:34;;;;;;;6.95;5.40;;;28.20;50.50;;;;;;4965473;28;20046;-84
2022/08/04 10:21:03;;;;;;;8.20;5.43;;;28.20;51.00;;;;;;4984104;28;20505;-84
2022/08/04 10:23:41;;;;;;;6.05;4.80;;;28.20;51.90;;;;;;4985455;28;20117;-84
2022/08/04 10:26:52;;;;;;;6.10;5.03;;;28.20;54.80;;;;;;4981863;28;20541;-85
2022/08/04 10:29:30;;;;;;;5.75;5.00;;;28.20;51.10;;;;;;4910512;29;20079;-83
2022/08/04 10:32:05;;;;;;;7.35;5.63;;;28.30;52.70;;;;;;4926189;29;20121;-83
2022/08/04 10:34:47;;;;;;;7.85;5.45;;;28.30;51.00;;;;;;4922111;29;20039;-82
2022/08/04 10:37:50;;;;;;;9.07;5.55;;;28.30;54.30;;;;;;4925194;29;20041;-82
2022/08/04 10:40:44;;;;;;;7.25;5.72;;;28.30;56.20;;;;;;4907504;29;20487;-84
2022/08/04 10:43:43;;;;;;;8.18;5.88;;;28.20;56.20;;;;;;4928070;29;20070;-93
2022/08/04 10:46:33;;;;;;;7.68;5.00;;;28.20;57.10;;;;;;4930312;29;20139;-84
2022/08/04 10:49:09;;;;;;;11.82;4.88;;;28.20;57.30;;;;;;4928622;29;20250;-87
2022/08/04 10:51:46;;;;;;;11.05;5.80;;;28.30;55.90;;;;;;4910370;29;20043;-88
2022/08/04 10:54:25;;;;;;;10.00;5.82;;;28.30;58.00;;;;;;4918517;29;20111;-87
2022/08/04 10:56:57;;;;;;;10.63;5.32;;;28.30;56.80;;;;;;4930744;29;20039;-88
2022/08/04 10:59:48;;;;;;;6.20;5.60;;;28.40;54.80;;;;;;4917430;28;20019;-85
2022/08/04 11:03:00;;;;;;;11.30;6.03;;;28.40;53.20;;;;;;4945180;28;20043;-85
2022/08/04 19:57:31;;;;;;;34.13;21.00;;;25.90;65.50;;;;;;5100908;27;20120;-75
2022/08/04 20:03:17;;;;;;;36.38;21.13;;;26.00;65.10;;;;;;5129018;27;20498;-79
2022/08/04 20:05:43;;;;;;;33.25;20.08;;;26.10;65.40;;;;;;5094876;28;20380;-80
2022/08/04 20:08:10;;;;;;;31.45;18.55;;;26.20;64.40;;;;;;5075226;28;20135;-81
2022/08/04 20:10:37;;;;;;;24.52;17.65;;;26.20;63.90;;;;;;5090066;28;20528;-83
2022/08/04 20:13:04;;;;;;;29.27;18.42;;;26.20;63.80;;;;;;5073920;28;20047;-82
2022/08/04 20:15:30;;;;;;;28.65;18.70;;;26.20;63.70;;;;;;5069441;28;20056;-82
2022/08/04 20:17:56;;;;;;;27.75;18.85;;;26.20;63.70;;;;;;5073446;28;20032;-81
2022/08/04 20:20:22;;;;;;;25.33;16.60;;;26.30;63.70;;;;;;5073366;28;20510;-82
2022/08/04 20:22:48;;;;;;;24.13;16.63;;;26.30;63.20;;;;;;5123885;27;20047;-82
2022/08/04 20:25:14;;;;;;;24.95;16.75;;;26.30;63.70;;;;;;5090077;28;20479;-82
2022/08/04 20:27:40;;;;;;;22.92;16.63;;;26.30;63.20;;;;;;5072973;28;20028;-82
2022/08/04 20:30:07;;;;;;;18.83;15.15;;;26.40;62.80;;;;;;5090795;27;20028;-82
2022/08/04 20:32:33;;;;;;;21.63;15.73;;;26.40;62.70;;;;;;5073236;28;20036;-82
2022/08/04 20:34:59;;;;;;;21.83;14.27;;;26.40;62.70;;;;;;5107993;27;20078;-83
2022/08/04 20:37:26;;;;;;;21.38;14.98;;;26.40;62.60;;;;;;5124576;27;20449;-83
2022/08/04 20:40:02;;;;;;;19.00;14.98;;;26.50;62.80;;;;;;5091890;27;20070;-83
2022/08/04 20:42:30;;;;;;;17.40;14.82;;;26.50;62.60;;;;;;5089899;27;20123;-82
2022/08/04 20:44:57;;;;;;;17.10;14.35;;;26.50;62.50;;;;;;5061622;27;20535;-82
2022/08/04 20:47:24;;;;;;;18.50;14.85;;;26.50;62.30;;;;;;5123424;27;20555;-82
2022/08/04 20:49:51;;;;;;;19.13;15.40;;;26.50;63.00;;;;;;5060444;28;20036;-83
2022/08/04 20:52:17;;;;;;;16.75;14.07;;;26.50;63.20;;;;;;5082916;28;20083;-82
2022/08/04 20:54:44;;;;;;;20.48;14.85;;;26.50;62.80;;;;;;5090360;28;20036;-83
2022/08/04 20:57:10;;;;;;;18.33;14.48;;;26.50;62.80;;;;;;5092255;27;20032;-83
2022/08/04 20:59:36;;;;;;;18.55;14.82;;;26.50;62.70;;;;;;5107601;28;20559;-83
2022/08/04 21:02:04;;;;;;;18.60;14.38;;;26.60;62.80;;;;;;5039358;28;20075;-83
2022/08/04 21:04:30;;;;;;;15.98;13.25;;;26.60;62.70;;;;;;5092275;27;20036;-82
2022/08/04 21:07:02;;;;;;;16.08;13.77;;;26.60;62.70;;;;;;5072995;28;20036;-80
2022/08/04 21:09:30;;;;;;;21.42;14.90;;;26.60;62.80;;;;;;5107671;28;20036;-82
2022/08/04 21:11:56;;;;;;;18.98;15.05;;;26.50;62.90;;;;;;5089087;28;20077;-82
2022/08/04 21:14:23;;;;;;;18.95;14.88;;;26.50;63.90;;;;;;5062944;28;20024;-83
2022/08/04 21:16:49;;;;;;;17.92;14.45;;;26.50;63.40;;;;;;5043498;28;20047;-82
2022/08/04 21:19:34;;;;;;;19.67;14.55;;;26.60;63.20;;;;;;5076966;28;20097;-82
2022/08/04 21:22:00;;;;;;;15.48;13.65;;;26.60;62.90;;;;;;5077808;28;20039;-82
2022/08/04 21:24:27;;;;;;;16.55;14.25;;;26.50;63.10;;;;;;5078856;28;20124;-82
2022/08/04 21:26:54;;;;;;;16.27;13.27;;;26.50;63.10;;;;;;5078795;28;20061;-80
2022/08/04 21:29:20;;;;;;;16.15;13.30;;;26.50;63.20;;;;;;5068529;28;20023;-81
2022/08/04 21:31:46;;;;;;;20.33;13.23;;;26.50;63.40;;;;;;5092221;28;20040;-82
2022/08/04 21:34:14;;;;;;;15.55;14.05;;;26.50;63.50;;;;;;5059895;28;20097;-80
2022/08/04 21:36:43;;;;;;;16.88;14.82;;;26.50;63.10;;;;;;5076450;28;20167;-82
2022/08/04 21:39:11;;;;;;;31.00;24.00;;;26.50;63.20;;;;;;5077443;28;20240;-82
2022/08/04 21:41:40;;;;;;;21.95;16.90;;;26.50;63.30;;;;;;5070119;28;20426;-83
2022/08/04 21:44:07;;;;;;;21.88;17.15;;;26.50;63.80;;;;;;5059369;28;20043;-82
2022/08/04 21:46:33;;;;;;;25.70;18.17;;;26.40;63.90;;;;;;5059373;28;20041;-82
2022/08/04 21:49:00;;;;;;;29.35;18.05;;;26.30;64.00;;;;;;5059637;28;20044;-82
2022/08/04 21:51:31;;;;;;;27.85;18.33;;;26.40;64.20;;;;;;5075966;28;20090;-83
2022/08/04 21:53:58;;;;;;;32.53;19.40;;;26.30;64.20;;;;;;5075607;28;20089;-82
2022/08/04 21:56:24;;;;;;;28.10;21.02;;;26.30;64.10;;;;;;5060725;28;20138;-82
2022/08/04 21:58:50;;;;;;;26.00;20.80;;;26.30;64.20;;;;;;5074775;28;20040;-82
2022/08/04 22:01:16;;;;;;;29.13;20.27;;;26.20;64.20;;;;;;5091969;28;20059;-81
2022/08/04 22:03:44;;;;;;;31.23;20.77;;;26.20;64.30;;;;;;5075632;28;20039;-82
2022/08/04 22:06:11;;;;;;;29.55;19.80;;;26.20;64.10;;;;;;5041968;28;20082;-81
2022/08/04 22:08:39;;;;;;;27.00;19.75;;;26.20;64.40;;;;;;5068718;28;20425;-81
2022/08/04 22:11:21;;;;;;;24.48;18.25;;;26.10;64.30;;;;;;5109754;27;20028;-81
2022/08/04 22:13:47;;;;;;;22.42;17.92;;;26.10;64.50;;;;;;5077214;28;20402;-82
2022/08/04 22:16:13;;;;;;;22.70;17.15;;;26.00;64.50;;;;;;5091934;28;20038;-81
2022/08/04 22:18:39;;;;;;;21.50;17.58;;;26.00;64.40;;;;;;5075994;28;20046;-82